createdAt,value
2023-05-05T00:01:06.072Z,30.67
2023-05-05T00:03:39.422Z,30.68
2023-05-05T00:06:09.902Z,30.76
2023-05-05T00:08:40.094Z,30.76
2023-05-05T00:11:10.312Z,30.68
2023-05-05T00:13:40.688Z,30.69
2023-05-05T00:16:10.953Z,30.74
2023-05-05T00:18:41.420Z,30.79
2023-05-05T00:21:11.711Z,30.89
2023-05-05T00:23:41.833Z,30.95
2023-05-05T00:26:12.013Z,31.00
2023-05-05T00:28:42.550Z,31.04
2023-05-05T00:31:12.895Z,31.09
2023-05-05T00:33:43.251Z,31.15
2023-05-05T00:36:13.444Z,31.19
2023-05-05T00:38:43.856Z,31.21
2023-05-05T00:41:14.069Z,31.24
2023-05-05T00:43:44.690Z,31.26
2023-05-05T00:46:31.498Z,31.28
2023-05-05T00:49:02.716Z,31.31
2023-05-05T00:51:33.454Z,31.34
2023-05-05T00:54:04.104Z,31.35
2023-05-05T00:56:34.969Z,31.38
2023-05-05T00:59:32.960Z,31.40
2023-05-05T01:02:03.210Z,31.23
2023-05-05T01:04:33.612Z,31.43
2023-05-05T01:07:10.334Z,31.45
2023-05-05T01:10:07.243Z,31.47
2023-05-05T01:12:53.776Z,31.49
2023-05-05T01:15:24.136Z,31.52
2023-05-05T01:17:59.315Z,31.53
2023-05-05T01:20:35.224Z,31.55
2023-05-05T01:23:07.940Z,31.59
2023-05-05T01:25:38.020Z,31.60
2023-05-05T01:28:14.217Z,31.64
2023-05-05T01:31:00.177Z,31.66
2023-05-05T01:33:33.584Z,31.68
2023-05-05T01:36:12.326Z,31.69
2023-05-05T01:38:44.334Z,31.72
2023-05-05T01:41:19.177Z,31.76
2023-05-05T01:43:51.699Z,31.77
2023-05-05T01:46:24.130Z,31.79
2023-05-05T01:48:55.706Z,31.81
2023-05-05T01:51:27.989Z,31.85
2023-05-05T01:54:02.693Z,31.88
2023-05-05T01:56:34.105Z,31.89
2023-05-05T01:59:07.011Z,31.92
2023-05-05T02:01:42.717Z,31.95
2023-05-05T02:04:15.886Z,31.96
2023-05-05T02:06:48.998Z,32.00
2023-05-05T02:09:19.337Z,32.03
2023-05-05T02:11:50.278Z,32.04
2023-05-05T02:14:22.078Z,32.07
2023-05-05T02:16:53.189Z,32.10
2023-05-05T02:19:26.359Z,32.13
2023-05-05T02:21:56.628Z,32.17
2023-05-05T02:24:27.885Z,32.20
2023-05-05T02:26:59.597Z,32.22
2023-05-05T02:29:34.700Z,32.25
2023-05-05T02:32:11.506Z,32.28
2023-05-05T02:34:42.813Z,32.31
2023-05-05T02:37:19.890Z,32.34
2023-05-05T02:40:06.461Z,32.38
2023-05-05T02:42:38.956Z,32.40
2023-05-05T02:45:17.055Z,32.44
2023-05-05T02:47:50.888Z,32.47
2023-05-05T02:50:22.938Z,32.51
2023-05-05T02:53:12.813Z,32.53
2023-05-05T02:55:52.379Z,32.55
2023-05-05T02:58:32.617Z,32.59
2023-05-05T03:01:12.055Z,32.61
2023-05-05T03:03:48.707Z,32.63
2023-05-05T03:06:22.016Z,32.67
2023-05-05T03:09:14.955Z,32.68
2023-05-05T03:11:51.466Z,32.71
2023-05-05T03:14:22.834Z,32.72
2023-05-05T03:16:56.118Z,32.75
2023-05-05T03:19:27.092Z,32.77
2023-05-05T03:22:02.489Z,32.81
2023-05-05T03:24:33.212Z,32.82
2023-05-05T03:27:08.245Z,32.86
2023-05-05T03:29:41.181Z,32.87
2023-05-05T03:32:15.661Z,32.89
2023-05-05T03:34:46.529Z,32.91
2023-05-05T03:37:17.284Z,32.92
2023-05-05T03:39:47.941Z,32.91
2023-05-05T03:42:18.474Z,32.93
2023-05-05T03:44:48.748Z,32.94
2023-05-05T03:47:19.002Z,32.93
2023-05-05T03:49:49.373Z,32.94
2023-05-05T03:52:20.248Z,32.96
2023-05-05T03:54:50.650Z,32.98
2023-05-05T03:57:21.547Z,32.99
2023-05-05T03:59:51.847Z,33.01
2023-05-05T04:02:22.354Z,33.03
2023-05-05T04:04:52.710Z,33.05
2023-05-05T04:07:25.028Z,33.09
2023-05-05T04:09:56.141Z,33.07
2023-05-05T04:12:26.404Z,33.12
2023-05-05T04:14:56.543Z,33.13
2023-05-05T04:17:26.957Z,33.17
2023-05-05T04:19:57.809Z,33.19
2023-05-05T04:22:28.235Z,33.21
2023-05-05T04:24:59.116Z,33.22
2023-05-05T04:27:31.358Z,33.23
2023-05-05T04:30:03.149Z,33.27
2023-05-05T04:32:35.482Z,33.30
2023-05-05T04:35:05.883Z,33.31
2023-05-05T04:37:36.327Z,33.34
2023-05-05T04:40:07.257Z,33.36
2023-05-05T04:42:39.160Z,33.38
2023-05-05T04:45:10.793Z,33.41
2023-05-05T04:47:41.901Z,33.43
2023-05-05T04:50:12.927Z,33.46
2023-05-05T04:52:43.098Z,33.47
2023-05-05T04:55:13.481Z,33.48
2023-05-05T04:57:43.644Z,33.52
2023-05-05T05:00:14.052Z,33.52
2023-05-05T05:02:44.374Z,33.54
2023-05-05T05:05:14.646Z,33.55
2023-05-05T05:07:44.777Z,33.58
2023-05-05T05:10:15.432Z,33.60
2023-05-05T05:12:45.727Z,33.61
2023-05-05T05:15:16.130Z,33.63
2023-05-05T05:17:46.647Z,33.64
2023-05-05T05:20:17.430Z,33.66
2023-05-05T05:22:47.836Z,33.67
2023-05-05T05:25:21.204Z,33.68
2023-05-05T05:28:02.284Z,33.70
2023-05-05T05:30:42.859Z,33.72
2023-05-05T05:33:14.309Z,33.72
2023-05-05T05:35:45.398Z,33.73
2023-05-05T05:38:16.788Z,33.75
2023-05-05T05:40:47.825Z,33.78
2023-05-05T05:43:18.063Z,33.81
2023-05-05T05:45:48.337Z,33.83
2023-05-05T05:48:19.115Z,33.86
2023-05-05T05:50:49.815Z,33.89
2023-05-05T05:53:19.976Z,33.92
2023-05-05T05:55:50.497Z,33.95
2023-05-05T05:58:20.848Z,33.96
2023-05-05T06:00:51.283Z,33.99
2023-05-05T06:03:21.637Z,34.00
2023-05-05T06:05:52.223Z,34.01
2023-05-05T06:08:24.889Z,34.01
2023-05-05T06:10:57.535Z,34.02
2023-05-05T06:13:27.679Z,34.03
2023-05-05T06:15:57.817Z,34.04
2023-05-05T06:18:28.106Z,34.06
2023-05-05T06:20:58.954Z,34.07
2023-05-05T06:23:31.468Z,34.08
2023-05-05T06:26:06.458Z,34.09
2023-05-05T06:28:36.678Z,34.13
2023-05-05T06:31:06.934Z,34.13
2023-05-05T06:33:37.140Z,34.14
2023-05-05T06:36:07.568Z,34.14
2023-05-05T06:38:37.899Z,34.16
2023-05-05T06:41:08.051Z,34.16
2023-05-05T06:43:38.167Z,34.18
2023-05-05T06:46:15.112Z,34.19
2023-05-05T06:48:45.482Z,34.20
2023-05-05T06:51:16.956Z,34.23
2023-05-05T06:53:47.288Z,34.24
2023-05-05T06:56:17.428Z,34.26
2023-05-05T06:58:47.954Z,34.28
2023-05-05T07:01:18.599Z,34.28
2023-05-05T07:03:48.898Z,34.29
2023-05-05T07:06:19.082Z,34.30
2023-05-05T07:08:49.252Z,34.29
2023-05-05T07:11:21.928Z,34.30
2023-05-05T07:13:52.375Z,34.30
2023-05-05T07:16:22.489Z,34.31
2023-05-05T07:18:53.006Z,34.31
2023-05-05T07:21:23.427Z,34.33
2023-05-05T07:23:53.602Z,34.32
2023-05-05T07:26:23.731Z,34.32
2023-05-05T07:28:53.991Z,34.31
2023-05-05T07:31:24.848Z,34.33
2023-05-05T07:33:55.089Z,34.33
2023-05-05T07:36:25.200Z,34.33
2023-05-05T07:38:55.510Z,34.33
2023-05-05T07:41:25.934Z,34.33
2023-05-05T07:43:56.170Z,34.34
2023-05-05T07:46:26.949Z,34.33
2023-05-05T07:48:57.298Z,34.34
2023-05-05T07:51:27.954Z,34.34
2023-05-05T07:53:58.103Z,34.35
2023-05-05T07:56:28.224Z,34.35
2023-05-05T07:58:58.291Z,34.35
2023-05-05T08:01:28.476Z,34.34
2023-05-05T08:03:58.982Z,34.34
2023-05-05T08:06:30.273Z,34.33
2023-05-05T08:09:03.678Z,34.34
2023-05-05T08:11:33.922Z,34.33
2023-05-05T08:14:04.299Z,34.33
2023-05-05T08:16:34.696Z,34.32
2023-05-05T08:19:09.756Z,34.31
2023-05-05T08:21:45.072Z,34.31
2023-05-05T08:24:15.208Z,34.29
2023-05-05T08:26:45.297Z,34.29
2023-05-05T08:29:15.377Z,34.29
2023-05-05T08:31:46.135Z,34.25
2023-05-05T08:34:16.258Z,34.23
2023-05-05T08:36:46.348Z,34.21
2023-05-05T08:39:16.531Z,34.19
2023-05-05T08:41:46.758Z,34.18
2023-05-05T08:44:17.440Z,34.17
2023-05-05T08:46:47.937Z,34.17
2023-05-05T08:49:19.559Z,34.16
2023-05-05T08:51:50.681Z,34.16
2023-05-05T08:54:21.745Z,34.15
2023-05-05T08:56:54.956Z,34.14
2023-05-05T08:59:26.720Z,34.14
2023-05-05T09:01:57.980Z,34.14
2023-05-05T09:04:28.253Z,34.12
2023-05-05T09:07:01.516Z,34.11
2023-05-05T09:09:32.283Z,34.10
2023-05-05T09:12:03.391Z,34.11
2023-05-05T09:14:33.521Z,34.11
2023-05-05T09:17:04.728Z,34.09
2023-05-05T09:19:35.010Z,34.08
2023-05-05T09:22:05.489Z,34.07
2023-05-05T09:24:35.579Z,34.06
2023-05-05T09:27:22.796Z,34.05
2023-05-05T09:29:53.160Z,33.99
2023-05-05T09:32:24.316Z,33.98
2023-05-05T09:35:01.362Z,33.93
2023-05-05T09:37:32.227Z,33.90
2023-05-05T09:40:02.662Z,33.87
2023-05-05T09:42:33.354Z,33.83
2023-05-05T09:45:04.075Z,33.83
2023-05-05T09:47:38.277Z,33.84
2023-05-05T09:50:08.925Z,33.79
2023-05-05T09:52:39.397Z,33.82
2023-05-05T09:55:19.005Z,33.93
2023-05-05T09:57:49.663Z,33.93
2023-05-05T10:00:20.080Z,33.90
2023-05-05T10:02:50.719Z,33.90
2023-05-05T10:05:20.903Z,33.90
2023-05-05T10:07:51.270Z,33.89
2023-05-05T10:10:21.827Z,33.89
2023-05-05T10:12:52.461Z,33.43
2023-05-05T10:15:23.705Z,33.88
2023-05-05T10:18:07.003Z,33.87
2023-05-05T10:20:40.707Z,33.89
2023-05-05T10:23:12.836Z,33.89
2023-05-05T10:25:51.956Z,33.90
2023-05-05T10:28:25.813Z,33.88
2023-05-05T10:30:58.597Z,33.89
2023-05-05T10:33:32.961Z,33.88
2023-05-05T10:36:04.155Z,33.88
2023-05-05T10:38:37.754Z,33.87
2023-05-05T10:41:08.639Z,33.87
2023-05-05T10:43:39.350Z,33.86
2023-05-05T10:46:10.814Z,33.88
2023-05-05T10:49:01.851Z,33.86
2023-05-05T10:51:53.341Z,33.85
2023-05-05T10:54:29.483Z,33.85
2023-05-05T10:57:03.978Z,33.87
2023-05-05T10:59:40.334Z,33.89
2023-05-05T11:02:29.632Z,33.86
2023-05-05T11:05:06.760Z,33.87
2023-05-05T11:07:37.772Z,33.91
2023-05-05T11:10:09.365Z,33.95
2023-05-05T11:13:00.831Z,33.98
2023-05-05T11:15:31.570Z,34.03
2023-05-05T11:18:07.328Z,34.06
2023-05-05T11:20:44.999Z,34.07
2023-05-05T11:23:16.625Z,34.08
2023-05-05T11:25:47.250Z,33.91
2023-05-05T11:28:18.385Z,34.11
2023-05-05T11:30:58.238Z,34.12
2023-05-05T11:33:30.657Z,34.11
2023-05-05T11:36:04.121Z,34.10
2023-05-05T11:38:38.241Z,34.10
2023-05-05T11:41:15.821Z,34.09
2023-05-05T11:43:45.923Z,34.11
2023-05-05T11:46:17.700Z,34.11
2023-05-05T11:48:48.523Z,34.10
2023-05-05T11:51:19.173Z,34.10
2023-05-05T11:53:50.264Z,34.12
2023-05-05T11:56:26.486Z,34.11
2023-05-05T11:59:11.128Z,34.08
2023-05-05T12:01:44.744Z,34.08
2023-05-05T12:04:15.660Z,34.07
2023-05-05T12:06:46.995Z,34.08
2023-05-05T12:09:26.250Z,34.07
2023-05-05T12:11:57.579Z,34.07
2023-05-05T12:14:27.838Z,34.06
2023-05-05T12:17:04.991Z,34.35
2023-05-05T12:19:35.441Z,34.20
2023-05-05T12:22:06.825Z,34.02
2023-05-05T12:24:37.004Z,33.91
2023-05-05T12:27:10.541Z,33.84
2023-05-05T12:29:41.060Z,33.78
2023-05-05T12:32:19.975Z,33.72
2023-05-05T12:34:50.758Z,33.61
2023-05-05T12:37:21.783Z,33.58
2023-05-05T12:39:52.518Z,33.52
2023-05-05T12:42:23.885Z,33.38
2023-05-05T12:44:54.040Z,33.34
2023-05-05T12:47:34.360Z,33.38
2023-05-05T12:50:05.376Z,33.43
2023-05-05T12:52:42.411Z,33.48
2023-05-05T12:55:13.197Z,33.51
2023-05-05T12:58:02.993Z,33.54
2023-05-05T13:00:33.302Z,33.58
2023-05-05T13:03:04.063Z,33.62
2023-05-05T13:05:35.605Z,33.63
2023-05-05T13:08:05.823Z,33.64
2023-05-05T13:10:36.093Z,33.64
2023-05-05T13:13:06.317Z,33.67
2023-05-05T13:15:36.722Z,33.67
2023-05-05T13:18:06.952Z,33.67
2023-05-05T13:20:37.222Z,33.66
2023-05-05T13:23:07.441Z,33.68
2023-05-05T13:25:38.020Z,33.68
2023-05-05T13:28:08.508Z,33.68
2023-05-05T13:30:39.562Z,33.62
2023-05-05T13:33:10.339Z,33.67
2023-05-05T13:35:41.032Z,33.66
2023-05-05T13:38:11.183Z,33.66
2023-05-05T13:40:41.318Z,33.66
2023-05-05T13:43:11.469Z,33.69
2023-05-05T13:45:42.007Z,33.68
2023-05-05T13:48:12.831Z,33.67
2023-05-05T13:50:43.125Z,33.69
2023-05-05T13:53:13.856Z,33.67
2023-05-05T13:55:44.766Z,33.68
2023-05-05T13:58:15.242Z,33.67
2023-05-05T14:00:46.039Z,33.66
2023-05-05T14:03:16.269Z,33.67
2023-05-05T14:05:47.661Z,33.66
2023-05-05T14:09:09.574Z,33.67
2023-05-05T14:11:39.763Z,33.67
2023-05-05T14:14:09.918Z,33.68
2023-05-05T14:16:40.055Z,33.67
2023-05-05T14:19:10.286Z,33.66
2023-05-05T14:21:40.574Z,33.66
2023-05-05T14:24:10.899Z,33.66
2023-05-05T14:26:41.235Z,33.66
2023-05-05T14:29:11.433Z,33.66
2023-05-05T14:31:41.736Z,33.65
2023-05-05T14:34:11.808Z,33.66
2023-05-05T14:36:42.698Z,33.62
2023-05-05T14:39:13.009Z,33.65
2023-05-05T14:41:43.472Z,33.65
2023-05-05T14:44:14.182Z,33.64
2023-05-05T14:46:45.913Z,33.64
2023-05-05T14:49:16.589Z,33.63
2023-05-05T14:51:46.698Z,33.62
2023-05-05T14:54:27.223Z,33.63
2023-05-05T14:56:59.682Z,33.62
2023-05-05T14:59:30.339Z,33.62
2023-05-05T15:02:00.724Z,33.62
2023-05-05T15:04:30.998Z,33.61
2023-05-05T15:07:01.232Z,33.61
2023-05-05T15:09:31.288Z,33.61
2023-05-05T15:12:01.506Z,33.61
2023-05-05T15:14:32.234Z,33.61
2023-05-05T15:17:02.415Z,33.61
2023-05-05T15:19:32.749Z,33.61
2023-05-05T15:22:02.953Z,33.60
2023-05-05T15:24:33.221Z,33.60
2023-05-05T15:27:03.696Z,33.59
2023-05-05T15:30:13.171Z,33.49
2023-05-05T15:33:03.632Z,33.33
2023-05-05T15:35:34.063Z,33.29
2023-05-05T15:38:04.815Z,33.12
2023-05-05T15:40:35.211Z,32.87
2023-05-05T15:43:05.880Z,32.63
2023-05-05T15:45:36.112Z,32.38
2023-05-05T15:48:06.562Z,32.15
2023-05-05T15:50:36.784Z,31.96
2023-05-05T15:53:07.170Z,31.78
2023-05-05T15:55:37.668Z,31.59
2023-05-05T15:58:07.866Z,31.39
2023-05-05T16:00:38.719Z,31.19
2023-05-05T16:03:08.878Z,31.07
2023-05-05T16:05:39.107Z,30.95
2023-05-05T16:08:11.715Z,30.81
2023-05-05T16:10:41.996Z,30.70
2023-05-05T16:13:12.381Z,30.62
2023-05-05T16:15:42.628Z,30.57
2023-05-05T16:18:12.712Z,30.50
2023-05-05T16:20:42.985Z,30.45
2023-05-05T16:23:13.325Z,30.36
2023-05-05T16:25:43.420Z,30.30
2023-05-05T16:28:13.638Z,30.28
2023-05-05T16:30:44.522Z,30.23
2023-05-05T16:33:14.669Z,30.15
2023-05-05T16:35:48.000Z,30.11
2023-05-05T16:38:18.410Z,30.08
2023-05-05T16:40:48.616Z,30.03
2023-05-05T16:43:18.869Z,29.98
2023-05-05T16:45:49.319Z,29.95
2023-05-05T16:48:20.094Z,29.92
2023-05-05T16:50:50.840Z,29.87
2023-05-05T16:53:21.044Z,29.83
2023-05-05T16:55:54.911Z,29.77
2023-05-05T16:58:25.327Z,29.74
2023-05-05T17:00:56.616Z,29.70
2023-05-05T17:03:26.806Z,29.67
2023-05-05T17:05:57.258Z,29.63
2023-05-05T17:08:27.435Z,29.58
2023-05-05T17:10:57.625Z,29.56
2023-05-05T17:13:28.282Z,29.53
2023-05-05T17:15:58.868Z,29.51
2023-05-05T17:18:29.131Z,29.47
2023-05-05T17:21:00.476Z,29.45
2023-05-05T17:23:30.587Z,29.43
2023-05-05T17:26:00.936Z,29.42
2023-05-05T17:28:31.474Z,29.35
2023-05-05T17:31:03.059Z,29.32
2023-05-05T17:33:33.628Z,29.30
2023-05-05T17:36:03.794Z,29.29
2023-05-05T17:38:33.956Z,29.26
2023-05-05T17:41:03.993Z,29.25
2023-05-05T17:43:34.048Z,29.23
2023-05-05T17:46:04.256Z,29.19
2023-05-05T17:48:34.959Z,29.14
2023-05-05T17:51:05.128Z,29.14
2023-05-05T17:53:35.387Z,29.12
2023-05-05T17:56:06.659Z,29.12
2023-05-05T17:58:38.997Z,29.06
2023-05-05T18:01:09.114Z,29.05
2023-05-05T18:03:40.844Z,29.02
2023-05-05T18:06:11.409Z,29.03
2023-05-05T18:08:41.700Z,28.98
2023-05-05T18:11:12.299Z,28.94
2023-05-05T18:13:42.441Z,28.92
2023-05-05T18:16:12.511Z,28.92
2023-05-05T18:18:43.158Z,28.89
2023-05-05T18:21:13.486Z,28.89
2023-05-05T18:23:43.916Z,28.86
2023-05-05T18:26:13.958Z,28.84
2023-05-05T18:28:44.183Z,28.79
2023-05-05T18:31:14.701Z,28.78
2023-05-05T18:33:46.797Z,28.76
2023-05-05T18:36:17.756Z,28.73
2023-05-05T18:38:48.352Z,28.74
2023-05-05T18:41:18.562Z,28.72
2023-05-05T18:43:48.710Z,28.72
2023-05-05T18:46:20.681Z,28.67
2023-05-05T18:48:50.798Z,28.65
2023-05-05T18:51:20.889Z,28.63
2023-05-05T18:53:51.056Z,28.64
2023-05-05T18:56:21.235Z,28.62
2023-05-05T18:58:51.448Z,28.60
2023-05-05T19:01:22.409Z,28.59
2023-05-05T19:03:55.562Z,28.56
2023-05-05T19:06:26.064Z,28.51
2023-05-05T19:08:58.023Z,28.50
2023-05-05T19:11:28.615Z,28.51
2023-05-05T19:13:58.826Z,28.49
2023-05-05T19:16:30.097Z,28.46
2023-05-05T19:19:02.186Z,28.47
2023-05-05T19:21:33.038Z,28.40
2023-05-05T19:24:03.414Z,28.17
2023-05-05T19:26:33.459Z,28.41
2023-05-05T19:29:03.874Z,28.40
2023-05-05T19:31:34.149Z,28.36
2023-05-05T19:34:05.346Z,28.36
2023-05-05T19:36:36.063Z,28.34
2023-05-05T19:39:06.767Z,28.32
2023-05-05T19:41:37.482Z,28.31
2023-05-05T19:44:07.799Z,28.28
2023-05-05T19:46:37.946Z,28.28
2023-05-05T19:49:08.062Z,28.25
2023-05-05T19:51:38.384Z,28.21
2023-05-05T19:54:08.504Z,28.20
2023-05-05T19:56:38.610Z,28.20
2023-05-05T19:59:08.765Z,28.20
2023-05-05T20:01:38.985Z,28.17
2023-05-05T20:04:09.165Z,28.17
2023-05-05T20:06:39.501Z,28.15
2023-05-05T20:09:10.185Z,28.12
2023-05-05T20:11:40.370Z,28.12
2023-05-05T20:14:10.682Z,28.09
2023-05-05T20:16:41.350Z,28.05
2023-05-05T20:19:11.629Z,28.07
2023-05-05T20:21:42.594Z,28.05
2023-05-05T20:24:12.964Z,28.03
2023-05-05T20:26:43.475Z,28.04
2023-05-05T20:29:14.219Z,28.04
2023-05-05T20:31:44.535Z,27.98
2023-05-05T20:34:15.553Z,27.99
2023-05-05T20:36:45.670Z,27.97
2023-05-05T20:39:18.766Z,27.96
2023-05-05T20:41:49.015Z,27.96
2023-05-05T20:44:19.089Z,27.94
2023-05-05T20:46:49.208Z,27.92
2023-05-05T20:49:19.348Z,27.94
2023-05-05T20:51:49.538Z,27.88
2023-05-05T20:54:19.977Z,27.89
2023-05-05T20:56:50.137Z,27.91
2023-05-05T20:59:20.232Z,27.89
2023-05-05T21:01:50.335Z,27.86
2023-05-05T21:04:20.504Z,27.81
2023-05-05T21:06:51.094Z,27.80
2023-05-05T21:09:22.969Z,27.83
2023-05-05T21:11:53.519Z,27.83
2023-05-05T21:14:23.697Z,27.82
2023-05-05T21:16:54.252Z,27.80
2023-05-05T21:19:24.368Z,27.80
2023-05-05T21:21:55.162Z,27.79
2023-05-05T21:24:25.375Z,27.77
2023-05-05T21:26:56.022Z,27.76
2023-05-05T21:29:26.258Z,27.74
2023-05-05T21:31:56.666Z,27.72
2023-05-05T21:34:27.668Z,27.72
2023-05-05T21:36:58.522Z,27.72
2023-05-05T21:39:29.811Z,27.69
2023-05-05T21:42:00.649Z,27.69
2023-05-05T21:44:30.773Z,27.69
2023-05-05T21:47:01.192Z,27.68
2023-05-05T21:49:31.457Z,27.63
2023-05-05T21:52:01.546Z,27.61
2023-05-05T21:54:31.995Z,27.60
2023-05-05T21:57:02.232Z,27.62
2023-05-05T21:59:32.300Z,27.61
2023-05-05T22:02:02.503Z,27.60
2023-05-05T22:04:32.860Z,27.56
2023-05-05T22:07:02.982Z,27.56
2023-05-05T22:09:33.215Z,27.54
2023-05-05T22:12:03.924Z,27.49
2023-05-05T22:14:34.407Z,27.48
2023-05-05T22:17:04.785Z,27.46
2023-05-05T22:19:35.156Z,27.44
2023-05-05T22:22:05.538Z,27.43
2023-05-05T22:24:36.052Z,27.39
2023-05-05T22:27:06.148Z,27.35
2023-05-05T22:29:36.330Z,27.35
2023-05-05T22:32:06.579Z,27.34
2023-05-05T22:34:39.699Z,27.30
2023-05-05T22:37:10.885Z,27.26
2023-05-05T22:39:41.019Z,27.27
2023-05-05T22:42:11.099Z,27.22
2023-05-05T22:44:41.232Z,27.20
2023-05-05T22:47:11.708Z,27.17
2023-05-05T22:49:41.962Z,27.16
2023-05-05T22:52:12.062Z,27.17
2023-05-05T22:54:42.564Z,27.15
2023-05-05T22:57:13.039Z,27.10
2023-05-05T22:59:43.297Z,27.11
2023-05-05T23:02:16.730Z,27.15
2023-05-05T23:04:47.385Z,27.35
2023-05-05T23:07:44.026Z,27.58
2023-05-05T23:10:17.790Z,27.82
2023-05-05T23:12:47.895Z,28.03
2023-05-05T23:15:18.049Z,28.20
2023-05-05T23:17:48.161Z,28.32
2023-05-05T23:20:18.629Z,28.46
2023-05-05T23:22:48.809Z,28.61
2023-05-05T23:25:19.181Z,28.72
2023-05-05T23:27:49.565Z,28.83
2023-05-05T23:30:20.394Z,28.94
2023-05-05T23:32:50.770Z,29.04
2023-05-05T23:35:20.942Z,29.15
2023-05-05T23:37:51.325Z,29.23
2023-05-05T23:40:21.575Z,29.32
2023-05-05T23:42:51.804Z,29.40
2023-05-05T23:45:21.940Z,29.47
2023-05-05T23:47:52.198Z,29.57
2023-05-05T23:50:22.748Z,29.64
2023-05-05T23:52:53.183Z,29.71
2023-05-05T23:55:23.883Z,29.75
2023-05-05T23:57:54.782Z,29.82
